Time;durP1;ratioP1;P1;durP2;ratioP2;P2;SDS_P1;SDS_P2;PMS_P1;PMS_P2;Temp;Humidity;BMP_temperature;BMP_pressure;BME280_temperature;BME280_humidity;BME280_pressure;Samples;Min_cycle;Max_cycle;Signal;HPM_P1;HPM_P2
2024/04/05 00:02:20;;;;;;;5.72;0.88;;;;;;;14.22;77.68;100743.81;5030647;27;99185;-70
2024/04/05 00:04:45;;;;;;;6.72;0.80;;;;;;;14.18;78.15;100734.25;5040941;27;98307;-71
2024/04/05 00:07:12;;;;;;;;;;;;;;;14.36;77.50;100736.00;5043443;27;97077;-71
2024/04/05 00:09:39;;;;;;;6.45;0.95;;;;;;;14.29;77.72;100739.91;5026621;27;99262;-71
2024/04/05 00:12:06;;;;;;;9.68;1.60;;;;;;;14.49;77.09;100737.13;5036730;27;98874;-71
2024/04/05 00:14:32;;;;;;;5.40;1.10;;;;;;;14.52;76.29;100739.63;5031120;27;99180;-71
2024/04/05 00:16:59;;;;;;;7.90;1.30;;;;;;;14.20;77.78;100737.72;5027914;27;96792;-70
2024/04/05 00:19:24;;;;;;;7.80;1.05;;;;;;;14.52;76.73;100733.44;5026619;27;96904;-70
2024/04/05 00:21:51;;;;;;;;;;;;;;;14.76;75.66;100732.16;5034497;27;99058;-70
2024/04/05 00:24:16;;;;;;;4.88;1.48;;;;;;;14.89;75.18;100735.91;5031785;27;98684;-64
2024/04/05 00:26:42;;;;;;;;;;;;;;;14.61;75.50;100725.84;5032843;27;98467;-64
2024/04/05 00:29:07;;;;;;;6.13;0.98;;;;;;;14.60;76.14;100729.44;5031501;27;96851;-64
2024/04/05 00:31:35;;;;;;;;;;;;;;;14.69;76.13;100733.44;5032558;27;98014;-64
2024/04/05 00:34:00;;;;;;;8.25;1.13;;;;;;;14.64;76.15;100736.31;5031004;27;97981;-63
2024/04/05 00:36:27;;;;;;;;;;;;;;;14.50;76.74;100733.53;5025846;27;96801;-63
2024/04/05 00:38:54;;;;;;;4.30;1.05;;;;;;;14.30;77.50;100731.00;5033652;27;96813;-63
2024/04/05 00:41:21;;;;;;;2.30;0.93;;;;;;;14.34;77.19;100744.06;5035213;27;98687;-63
2024/04/05 00:43:46;;;;;;;7.32;1.10;;;;;;;14.36;77.52;100736.00;5030698;27;99221;-63
2024/04/05 00:46:13;;;;;;;;;;;;;;;14.35;77.60;100742.25;5024651;27;96838;-63
2024/04/05 00:48:40;;;;;;;6.50;1.20;;;;;;;14.17;78.26;100741.41;5032975;27;96820;-63
2024/04/05 00:51:07;;;;;;;8.52;1.02;;;;;;;14.30;77.86;100741.63;5037006;27;98933;-62
2024/04/05 00:53:33;;;;;;;6.15;1.08;;;;;;;14.33;77.96;100746.78;5028061;27;98815;-63
2024/04/05 00:56:00;;;;;;;8.52;1.27;;;;;;;14.39;77.39;100757.13;5026794;27;96872;-63
2024/04/05 00:58:26;;;;;;;9.85;1.02;;;;;;;14.29;78.09;100763.84;5032921;27;97574;-64
2024/04/05 01:00:53;;;;;;;;;;;;;;;14.34;77.88;100759.13;5035016;27;98918;-62
2024/04/05 01:03:19;;;;;;;8.57;1.73;;;;;;;14.55;76.72;100768.72;5033901;27;101843;-63
2024/04/05 01:05:48;;;;;;;5.05;1.05;;;;;;;14.49;76.99;100763.72;5033994;27;97270;-63
2024/04/05 01:08:14;;;;;;;9.45;1.52;;;;;;;14.13;78.95;100758.41;5034808;27;96836;-63
2024/04/05 01:10:41;;;;;;;8.50;1.05;;;;;;;14.21;78.35;100763.34;5038352;27;99025;-64
2024/04/05 01:13:08;;;;;;;8.63;1.25;;;;;;;14.05;79.42;100759.72;5036685;27;98972;-71
2024/04/05 01:15:35;;;;;;;10.32;1.60;;;;;;;13.99;79.94;100760.88;5026434;27;96819;-71
2024/04/05 01:18:03;;;;;;;7.88;1.50;;;;;;;14.39;78.54;100773.09;5030664;27;98595;-71
2024/04/05 01:20:31;;;;;;;6.07;1.23;;;;;;;14.22;78.74;100765.94;5031767;27;99138;-70
2024/04/05 01:23:00;;;;;;;5.30;1.10;;;;;;;14.24;78.91;100758.72;5032119;27;100786;-71
2024/04/05 01:25:28;;;;;;;6.45;1.10;;;;;;;14.41;78.43;100775.66;5030667;27;97027;-71
2024/04/05 01:27:55;;;;;;;10.57;1.33;;;;;;;14.43;78.07;100769.34;5034590;27;98343;-71
2024/04/05 01:30:21;;;;;;;7.97;1.17;;;;;;;14.51;77.92;100758.28;5030722;27;100077;-72
2024/04/05 01:32:54;;;;;;;5.47;0.88;;;;;;;14.74;76.87;100758.84;5036107;27;101610;-71
2024/04/05 01:35:31;;;;;;;9.52;1.20;;;;;;;14.60;76.59;100761.34;5028267;27;97164;-71
2024/04/05 01:37:58;;;;;;;5.25;1.23;;;;;;;14.72;76.72;100766.03;5037177;27;96981;-69
2024/04/05 01:40:24;;;;;;;9.02;1.25;;;;;;;14.76;76.28;100772.06;5028777;27;98866;-70
2024/04/05 01:42:52;;;;;;;6.95;1.10;;;;;;;14.82;76.36;100765.56;5033091;27;98895;-70
2024/04/05 01:45:18;;;;;;;7.07;1.20;;;;;;;14.75;76.40;100765.03;5025463;27;97186;-63
2024/04/05 01:47:44;;;;;;;;;;;;;;;15.08;75.27;100770.38;5033015;27;96976;-63
2024/04/05 01:50:12;;;;;;;6.37;1.20;;;;;;;14.75;76.56;100775.66;5031321;27;98281;-63
2024/04/05 01:52:38;;;;;;;9.45;1.00;;;;;;;14.86;76.09;100773.28;5031036;27;101738;-63
2024/04/05 01:55:04;;;;;;;6.63;1.42;;;;;;;15.04;75.41;100780.28;5034505;27;97845;-62
2024/04/05 01:57:30;;;;;;;;;;;;;;;15.37;73.91;100772.28;5031949;27;96973;-62
2024/04/05 01:59:57;;;;;;;5.85;1.17;;;;;;;15.43;73.48;100774.63;5036687;27;99208;-63
2024/04/05 02:02:23;;;;;;;6.65;1.33;;;;;;;15.61;72.65;100775.44;5028036;27;99209;-62
2024/04/05 02:04:51;;;;;;;9.77;1.20;;;;;;;15.66;71.93;100775.19;5026407;27;97116;-62
2024/04/05 02:07:18;;;;;;;7.43;1.05;;;;;;;15.72;71.53;100780.16;5030281;27;96749;-62
2024/04/05 02:09:45;;;;;;;6.60;1.15;;;;;;;15.46;72.23;100776.25;5029525;27;99768;-63
2024/04/05 02:12:12;;;;;;;6.82;1.42;;;;;;;15.53;72.38;100786.53;5027495;27;98859;-64
2024/04/05 02:14:37;;;;;;;8.00;1.60;;;;;;;15.52;72.80;100781.25;5030024;27;97609;-63
2024/04/05 02:17:05;;;;;;;;;;;;;;;15.77;71.76;100788.75;5026227;27;96932;-63
2024/04/05 02:19:30;;;;;;;9.80;1.77;;;;;;;15.69;71.95;100790.97;5029528;27;98979;-63
2024/04/05 02:21:57;;;;;;;;;;;;;;;15.23;74.55;100787.31;5035469;27;99112;-65
2024/04/05 02:24:22;;;;;;;13.60;1.77;;;;;;;15.48;73.08;100785.03;5029093;27;97980;-71
2024/04/05 02:26:48;;;;;;;;;;;;;;;15.19;74.35;100786.59;5032099;27;96986;-70
2024/04/05 02:29:14;;;;;;;7.60;1.25;;;;;;;15.19;74.01;100791.06;5031364;27;99034;-71
2024/04/05 02:31:40;;;;;;;;;;;;;;;15.17;74.50;100793.81;5036551;27;98961;-70
2024/04/05 02:34:07;;;;;;;11.63;1.38;;;;;;;15.31;74.07;100791.25;5032403;27;98685;-72
2024/04/05 02:36:33;;;;;;;8.38;0.93;;;;;;;15.33;73.78;100800.03;5030465;27;97091;-72
2024/04/05 02:38:59;;;;;;;5.22;1.15;;;;;;;14.99;74.94;100790.34;5034667;28;101257;-72
2024/04/05 02:41:25;;;;;;;;;;;;;;;15.21;74.30;100792.72;5032254;27;98762;-71
2024/04/05 02:43:50;;;;;;;5.47;1.60;;;;;;;15.10;74.86;100797.72;5033733;27;96945;-71
2024/04/05 02:46:17;;;;;;;;;;;;;;;15.06;75.23;100798.84;5032590;27;96858;-70
2024/04/05 02:48:42;;;;;;;9.30;1.15;;;;;;;14.96;75.66;100809.13;5033894;27;99200;-71
2024/04/05 02:51:10;;;;;;;;;;;;;;;15.09;75.23;100815.53;5036038;27;98755;-71
2024/04/05 02:53:35;;;;;;;9.32;1.92;;;;;;;15.15;74.97;100809.88;5036019;27;96836;-71
2024/04/05 02:56:01;;;;;;;;;;;;;;;15.35;74.20;100808.81;5033160;27;97816;-71
2024/04/05 02:58:27;;;;;;;5.07;1.00;;;;;;;15.32;74.07;100814.28;5029229;27;98974;-71
2024/04/05 03:00:55;;;;;;;;;;;;;;;15.28;74.25;100820.72;5034077;27;99826;-71
2024/04/05 03:03:20;;;;;;;7.47;1.30;;;;;;;15.23;74.36;100820.09;5032363;27;96849;-72
2024/04/05 03:05:47;;;;;;;;;;;;;;;15.50;73.72;100823.06;5026818;28;97256;-63
2024/04/05 03:08:14;;;;;;;10.63;1.52;;;;;;;15.39;73.67;100820.13;5030671;27;98903;-63
2024/04/05 03:10:41;;;;;;;8.55;1.48;;;;;;;15.33;74.03;100810.69;5032004;27;98987;-62
2024/04/05 03:13:07;;;;;;;10.85;1.50;;;;;;;15.33;74.33;100816.00;5026231;27;98147;-62
2024/04/05 03:15:34;;;;;;;6.45;1.40;;;;;;;15.40;74.08;100822.72;5025444;27;96795;-63
2024/04/05 03:17:59;;;;;;;16.92;2.17;;;;;;;15.65;73.02;100814.28;5028498;27;99108;-63
2024/04/05 03:20:25;;;;;;;;;;;;;;;15.63;72.76;100812.63;5030397;27;98762;-63
2024/04/05 03:22:51;;;;;;;10.75;1.45;;;;;;;15.33;73.70;100823.13;5038829;27;96735;-63
2024/04/05 03:25:18;;;;;;;;;;;;;;;15.26;74.83;100819.94;5035838;27;98532;-64
2024/04/05 03:27:44;;;;;;;;;;;;;;;15.36;74.14;100828.31;5039115;27;98929;-63
2024/04/05 03:30:10;;;;;;;8.07;1.33;;;;;;;15.16;74.93;100827.53;5029534;27;99205;-63
2024/04/05 03:32:35;;;;;;;11.05;1.63;;;;;;;15.39;74.12;100831.66;5041283;27;96824;-63
2024/04/05 03:35:05;;;;;;;;;;;;;;;15.31;74.45;100827.66;5035987;27;96925;-63
2024/04/05 03:37:32;;;;;;;12.00;1.58;;;;;;;15.30;74.46;100834.78;5034028;27;97932;-62
2024/04/05 03:39:58;;;;;;;11.18;1.67;;;;;;;15.57;73.52;100831.63;5033575;27;98799;-62
2024/04/05 03:42:26;;;;;;;15.10;1.67;;;;;;;15.28;74.60;100833.19;5032713;27;97229;-62
2024/04/05 03:44:52;;;;;;;10.70;1.40;;;;;;;15.51;74.08;100833.66;5037846;27;96773;-63
2024/04/05 03:47:22;;;;;;;10.95;2.25;;;;;;;15.62;73.60;100846.41;5026159;27;99017;-63
2024/04/05 03:49:47;;;;;;;12.38;2.38;;;;;;;15.75;72.76;100844.78;5033055;27;99610;-62
2024/04/05 03:52:14;;;;;;;;;;;;;;;15.69;72.91;100836.25;5033509;27;96748;-62
2024/04/05 03:54:39;;;;;;;9.00;1.20;;;;;;;15.55;73.20;100850.38;5030290;27;97636;-62
2024/04/05 03:57:05;;;;;;;;;;;;;;;15.53;73.32;100847.78;5025866;27;98898;-62
2024/04/05 03:59:33;;;;;;;7.35;1.15;;;;;;;15.69;73.10;100850.44;5033050;27;98963;-63
2024/04/05 04:01:59;;;;;;;8.57;1.30;;;;;;;15.74;72.75;100836.91;5025712;27;97006;-62
2024/04/05 04:04:25;;;;;;;;;;;;;;;15.81;72.29;100840.94;5032923;27;97715;-62
2024/04/05 04:06:50;;;;;;;10.80;1.30;;;;;;;15.70;72.96;100845.97;5028534;27;98920;-63
2024/04/05 04:09:17;;;;;;;;;;;;;;;15.61;73.48;100846.50;5038694;27;98785;-63
2024/04/05 04:11:42;;;;;;;6.82;1.42;;;;;;;15.31;74.58;100854.28;5025605;27;96934;-63
2024/04/05 04:14:09;;;;;;;;;;;;;;;15.47;74.30;100850.75;5030328;27;96838;-63
2024/04/05 04:16:36;;;;;;;7.07;1.20;;;;;;;15.27;75.31;100853.59;5033489;27;98994;-63
2024/04/05 04:19:02;;;;;;;10.00;1.30;;;;;;;15.26;75.70;100857.22;5025382;27;98075;-62
2024/04/05 04:21:28;;;;;;;7.18;1.08;;;;;;;14.99;76.78;100863.97;5032651;27;96859;-63
2024/04/05 04:23:54;;;;;;;;;;;;;;;14.89;77.79;100860.94;5025690;27;97183;-62
2024/04/05 04:26:20;;;;;;;11.18;1.60;;;;;;;14.93;77.08;100858.97;5026570;27;101325;-63
2024/04/05 04:28:47;;;;;;;;;;;;;;;15.00;76.86;100861.25;5036765;27;98876;-62
2024/04/05 04:31:16;;;;;;;8.95;2.47;;;;;;;14.91;77.62;100864.38;5031045;27;97992;-62
2024/04/05 04:33:45;;;;;;;5.15;1.10;;;;;;;14.80;78.18;100871.19;5030778;27;96800;-62
2024/04/05 04:36:10;;;;;;;7.75;1.35;;;;;;;14.93;77.98;100867.81;5029438;27;99461;-62
2024/04/05 04:38:36;;;;;;;;;;;;;;;15.02;77.26;100869.16;5034385;27;100212;-62
2024/04/05 04:41:02;;;;;;;7.63;1.13;;;;;;;14.74;78.29;100873.22;5031334;27;96850;-62
2024/04/05 04:43:29;;;;;;;;;;;;;;;14.91;78.02;100882.13;5033381;27;96903;-62
2024/04/05 04:45:54;;;;;;;5.73;1.00;;;;;;;14.65;79.12;100876.34;5036351;27;98505;-62
2024/04/05 04:48:20;;;;;;;;;;;;;;;14.67;79.26;100893.09;5036523;27;99094;-63
2024/04/05 04:50:47;;;;;;;5.38;1.23;;;;;;;14.62;79.48;100886.28;5030652;27;96798;-64
2024/04/05 04:53:13;;;;;;;7.80;2.08;;;;;;;14.72;79.05;100888.38;5031514;27;97030;-63
2024/04/05 04:55:41;;;;;;;4.75;1.25;;;;;;;14.50;80.53;100894.88;5030875;27;98955;-63
2024/04/05 04:58:11;;;;;;;9.07;1.30;;;;;;;14.67;79.63;100900.19;5032149;27;98777;-63
2024/04/05 05:00:36;;;;;;;6.38;1.50;;;;;;;14.42;80.49;100899.69;5031151;27;96831;-61
2024/04/05 05:03:02;;;;;;;;;;;;;;;14.82;79.50;100909.22;5035534;27;98746;-63
2024/04/05 05:05:29;;;;;;;5.68;1.20;;;;;;;14.72;79.17;100906.13;5027398;27;99238;-62
2024/04/05 05:07:55;;;;;;;8.50;1.40;;;;;;;14.75;79.08;100904.19;5039932;27;98917;-63
2024/04/05 05:10:22;;;;;;;13.38;1.85;;;;;;;14.68;79.02;100909.91;5031248;27;96940;-62
2024/04/05 05:12:48;;;;;;;9.65;1.52;;;;;;;14.93;78.34;100909.53;5034088;27;96737;-62
2024/04/05 05:15:14;;;;;;;;;;;;;;;14.90;77.65;100917.69;5032985;27;98776;-62
2024/04/05 05:17:39;;;;;;;9.48;1.27;;;;;;;15.01;77.47;100915.31;5028826;27;99633;-63
2024/04/05 05:20:07;;;;;;;;;;;;;;;15.09;77.23;100915.81;5033372;27;96770;-70
2024/04/05 05:22:32;;;;;;;9.05;1.33;;;;;;;15.02;77.19;100909.94;5025772;27;97006;-70
2024/04/05 05:25:00;;;;;;;;;;;;;;;14.83;77.81;100910.94;5034629;27;99014;-71
2024/04/05 05:27:25;;;;;;;11.15;1.65;;;;;;;15.18;77.33;100914.44;5038032;27;99883;-70
2024/04/05 05:29:51;;;;;;;;;;;;;;;15.11;76.90;100914.75;5030478;27;96850;-71
2024/04/05 05:32:17;;;;;;;11.98;2.00;;;;;;;15.00;77.22;100918.91;5031712;27;96971;-72
2024/04/05 05:34:43;;;;;;;;;;;;;;;15.24;76.21;100930.97;5023916;27;97712;-70
2024/04/05 05:37:08;;;;;;;7.18;1.52;;;;;;;15.16;76.59;100930.50;5037518;27;98752;-70
2024/04/05 05:39:35;;;;;;;;;;;;;;;15.44;75.56;100929.91;5022007;27;97673;-71
2024/04/05 05:42:01;;;;;;;6.60;1.20;;;;;;;15.59;74.24;100942.47;5035131;27;97187;-70
2024/04/05 05:44:28;;;;;;;5.30;1.75;;;;;;;15.54;74.71;100937.41;5034021;27;99235;-70
2024/04/05 05:46:54;;;;;;;7.05;1.65;;;;;;;15.71;73.91;100940.94;5030268;27;98877;-70
2024/04/05 05:49:21;;;;;;;;;;;;;;;15.86;72.73;100954.31;5031221;27;96646;-71
2024/04/05 05:51:46;;;;;;;9.90;1.83;;;;;;;15.60;73.65;100948.66;5028052;27;97293;-71
2024/04/05 05:54:12;;;;;;;;;;;;;;;15.54;73.75;100953.38;5024901;28;99117;-72
2024/04/05 05:56:38;;;;;;;10.52;2.15;;;;;;;15.56;73.68;100953.28;5027727;27;98806;-71
2024/04/05 05:59:05;;;;;;;;;;;;;;;15.66;73.44;100951.00;5032091;27;97112;-71
2024/04/05 06:01:31;;;;;;;9.40;1.80;;;;;;;15.79;72.39;100954.72;5031002;27;96864;-71
2024/04/05 06:03:57;;;;;;;;;;;;;;;16.06;71.51;100953.22;5023715;27;98741;-70
2024/04/05 06:06:24;;;;;;;17.15;1.65;;;;;;;16.10;71.24;100960.09;5031884;27;99397;-71
2024/04/05 06:08:50;;;;;;;6.50;1.52;;;;;;;16.27;70.13;100957.38;5025944;28;97092;-72
2024/04/05 06:11:16;;;;;;;14.05;2.53;;;;;;;16.11;70.52;100947.63;5034012;27;96915;-72
2024/04/05 06:13:42;;;;;;;;;;;;;;;15.82;71.45;100959.88;5037397;27;98830;-71
2024/04/05 06:16:09;;;;;;;7.78;1.45;;;;;;;15.70;71.58;100957.88;5035895;27;99041;-71
2024/04/05 06:18:35;;;;;;;11.73;1.58;;;;;;;16.00;71.33;100958.03;5039143;27;98771;-71
2024/04/05 06:21:01;;;;;;;11.23;1.38;;;;;;;15.87;71.20;100961.38;5040818;27;96797;-71
2024/04/05 06:23:27;;;;;;;;;;;;;;;16.07;70.70;100956.75;5029796;28;98901;-71
2024/04/05 06:25:57;;;;;;;8.10;1.67;;;;;;;16.61;68.84;100948.34;5035529;27;99071;-72
2024/04/05 06:28:24;;;;;;;8.05;1.83;;;;;;;16.47;68.96;100960.75;5040640;27;96799;-72
2024/04/05 06:30:49;;;;;;;8.02;1.55;;;;;;;16.90;66.71;100957.34;5033619;27;96941;-72
2024/04/05 06:33:17;;;;;;;;;;;;;;;16.90;65.96;100964.50;5028868;28;97804;-72
2024/04/05 06:35:43;;;;;;;8.18;1.70;;;;;;;16.66;67.10;100958.78;5033605;27;99234;-73
2024/04/05 06:38:09;;;;;;;;;;;;;;;16.99;66.18;100971.97;5033982;27;96826;-72
2024/04/05 06:40:34;;;;;;;7.23;1.50;;;;;;;17.13;65.51;100964.03;5034726;27;96812;-72
2024/04/05 06:43:01;;;;;;;;;;;;;;;17.41;64.00;100977.44;5028797;27;98659;-73
2024/04/05 06:45:26;;;;;;;8.40;1.77;;;;;;;17.08;64.91;100974.09;5039172;27;98862;-71
2024/04/05 06:47:53;;;;;;;;;;;;;;;16.71;65.91;100964.72;5036931;27;97854;-68
2024/04/05 06:50:20;;;;;;;11.63;1.87;;;;;;;16.80;65.97;100968.66;5032842;28;96927;-69
2024/04/05 06:52:46;;;;;;;13.32;2.72;;;;;;;17.23;65.12;100958.97;5024146;27;99358;-69
2024/04/05 06:55:11;;;;;;;9.80;2.30;;;;;;;17.57;63.73;100953.31;5032687;27;98933;-70
2024/04/05 06:57:38;;;;;;;;;;;;;;;17.95;61.87;100960.81;5036368;27;97231;-70
2024/04/05 07:00:06;;;;;;;12.80;1.87;;;;;;;18.27;61.28;100963.16;5027432;28;97091;-71
2024/04/05 07:02:32;;;;;;;11.48;1.90;;;;;;;18.46;60.39;100957.50;5027554;28;100490;-71
2024/04/05 07:04:58;;;;;;;10.15;2.10;;;;;;;18.13;61.28;100965.00;5027508;27;101754;-71
2024/04/05 07:07:26;;;;;;;;;;;;;;;18.09;61.12;100959.00;5028365;27;96802;-70
2024/04/05 07:09:52;;;;;;;9.10;2.13;;;;;;;18.41;60.42;100967.63;5032598;27;96837;-71
2024/04/05 07:12:18;;;;;;;;;;;;;;;18.36;60.15;100975.09;5030100;27;98932;-71
2024/04/05 07:14:44;;;;;;;21.35;3.95;;;;;;;18.47;60.90;100963.69;5026123;27;98657;-71
2024/04/05 07:17:11;;;;;;;;;;;;;;;18.41;60.18;100969.44;5029209;27;96908;-70
2024/04/05 07:19:36;;;;;;;24.00;4.30;;;;;;;18.97;58.67;100963.09;5030532;27;96853;-71
2024/04/05 07:22:03;;;;;;;;;;;;;;;18.98;57.79;100962.97;5027909;27;99034;-71
2024/04/05 07:24:30;;;;;;;7.90;2.03;;;;;;;19.15;57.05;100958.31;5030891;27;97631;-70
2024/04/05 07:26:56;;;;;;;12.40;2.08;;;;;;;19.10;57.11;100956.78;5031410;28;97484;-69
2024/04/05 07:29:22;;;;;;;40.03;6.13;;;;;;;18.94;58.54;100961.47;5028128;28;96990;-71
2024/04/05 07:31:49;;;;;;;;;;;;;;;19.46;57.32;100966.00;5032684;27;101203;-70
2024/04/05 07:34:15;;;;;;;12.90;3.35;;;;;;;19.75;56.34;100958.63;5029627;27;99564;-71
2024/04/05 07:36:42;;;;;;;14.45;2.45;;;;;;;19.90;55.15;100965.56;5029090;27;96931;-71
2024/04/05 07:39:08;;;;;;;18.65;2.72;;;;;;;19.46;56.31;100960.66;5025938;27;96835;-70
2024/04/05 07:41:36;;;;;;;17.60;3.28;;;;;;;19.61;56.01;100962.28;5025919;27;101880;-71
2024/04/05 07:44:02;;;;;;;17.42;3.92;;;;;;;19.74;56.29;100964.97;5032079;27;100083;-70
2024/04/05 07:46:28;;;;;;;16.33;3.15;;;;;;;19.01;56.43;100969.97;5036316;27;97131;-70
2024/04/05 07:48:54;;;;;;;22.60;3.42;;;;;;;18.24;57.93;100976.75;5030083;27;96814;-70
2024/04/05 07:51:20;;;;;;;;;;;;;;;17.67;60.37;100980.38;5027668;27;99090;-70
2024/04/05 07:53:47;;;;;;;17.13;3.45;;;;;;;17.50;60.79;100965.34;5026773;27;98973;-64
2024/04/05 07:56:13;;;;;;;13.70;2.40;;;;;;;17.64;61.56;100970.75;5028723;27;96999;-62
2024/04/05 07:58:40;;;;;;;18.67;2.50;;;;;;;17.24;62.05;100968.72;5030467;27;99130;-62
2024/04/05 08:01:07;;;;;;;26.10;3.45;;;;;;;16.92;64.02;100968.81;5031306;27;99553;-63
2024/04/05 08:03:33;;;;;;;18.13;3.28;;;;;;;17.04;63.27;100965.41;5031084;27;99251;-62
2024/04/05 08:06:00;;;;;;;;;;;;;;;16.89;64.05;100968.97;5024872;27;97470;-64
2024/04/05 08:08:26;;;;;;;17.33;2.70;;;;;;;17.97;61.38;100977.63;5033673;27;96880;-63
2024/04/05 08:10:59;;;;;;;;;;;;;;;18.86;59.04;100976.31;5032871;27;98397;-62
2024/04/05 08:13:25;;;;;;;13.90;2.40;;;;;;;19.17;57.29;100977.81;5020687;27;100044;-64
2024/04/05 08:15:52;;;;;;;;;;;;;;;19.01;57.10;100978.84;5030702;27;96895;-62
2024/04/05 08:18:18;;;;;;;19.00;3.28;;;;;;;19.28;56.82;100986.00;5031088;27;96971;-62
2024/04/05 08:20:44;;;;;;;;;;;;;;;19.52;56.31;100973.63;5032741;27;98960;-63
2024/04/05 08:23:09;;;;;;;12.48;2.72;;;;;;;19.69;56.02;100983.19;5024063;27;99061;-62
2024/04/05 08:25:36;;;;;;;;;;;;;;;19.81;55.42;100987.69;5028199;27;96839;-63
2024/04/05 08:28:02;;;;;;;19.85;2.88;;;;;;;19.45;56.17;100985.69;5022859;27;96966;-63
2024/04/05 08:30:29;;;;;;;15.48;2.63;;;;;;;19.03;58.25;100989.47;5027148;27;99716;-62
2024/04/05 08:32:56;;;;;;;18.63;2.85;;;;;;;19.21;57.72;100988.22;5030969;27;99441;-62
2024/04/05 08:35:22;;;;;;;15.43;2.53;;;;;;;19.45;56.89;100993.72;5038666;27;97051;-62
2024/04/05 08:37:47;;;;;;;15.27;2.30;;;;;;;19.08;57.81;100996.22;5031211;27;96826;-63
2024/04/05 08:40:14;;;;;;;;;;;;;;;19.26;58.08;100999.47;5030027;27;98763;-63
2024/04/05 08:42:41;;;;;;;18.58;2.70;;;;;;;19.51;57.00;101006.75;5027384;27;99252;-61
2024/04/05 08:45:12;;;;;;;15.77;2.53;;;;;;;19.56;56.53;101019.84;5031276;28;96711;-63
2024/04/05 08:47:38;;;;;;;14.07;2.42;;;;;;;19.18;57.89;101017.03;5022447;27;96846;-63
2024/04/05 08:50:07;;;;;;;;;;;;;;;19.35;57.66;101022.13;5030086;28;98748;-63
2024/04/05 08:52:34;;;;;;;14.45;2.50;;;;;;;19.74;56.89;101023.94;5029908;27;97710;-63
2024/04/05 08:55:02;;;;;;;12.60;2.80;;;;;;;20.49;55.00;101014.13;5027103;27;97599;-63
2024/04/05 08:57:30;;;;;;;11.85;3.42;;;;;;;20.56;53.54;101015.41;5030700;27;97843;-62
2024/04/05 08:59:57;;;;;;;10.10;2.33;;;;;;;20.18;54.79;101024.34;5026678;27;98842;-61
2024/04/05 09:02:25;;;;;;;16.77;4.50;;;;;;;20.35;54.50;101023.16;5024223;28;99071;-64
2024/04/05 09:04:51;;;;;;;18.17;2.67;;;;;;;20.39;54.85;101029.19;5025475;28;96919;-63
2024/04/05 09:07:20;;;;;;;16.40;2.63;;;;;;;20.89;53.54;101025.50;5027148;27;97000;-64
2024/04/05 09:09:47;;;;;;;13.35;3.33;;;;;;;20.85;52.88;101019.50;5027283;27;100594;-62
2024/04/05 09:12:15;;;;;;;8.25;1.92;;;;;;;20.64;54.19;101013.03;5037909;27;98763;-62
2024/04/05 09:14:42;;;;;;;14.18;2.45;;;;;;;20.87;53.68;101006.78;5032463;27;96766;-61
2024/04/05 09:17:13;;;;;;;13.57;2.50;;;;;;;20.67;54.16;101010.13;5026007;27;98479;-63
2024/04/05 09:19:39;;;;;;;11.40;2.90;;;;;;;20.97;53.61;101006.97;5031829;27;98831;-62
2024/04/05 09:22:05;;;;;;;16.17;2.80;;;;;;;21.37;52.55;101021.84;5026850;27;99114;-63
2024/04/05 09:24:32;;;;;;;10.52;2.42;;;;;;;21.31;51.91;101010.72;5028528;28;96824;-62
2024/04/05 09:26:58;;;;;;;16.63;2.90;;;;;;;21.38;52.10;101018.19;5023319;28;96828;-63
2024/04/05 09:29:24;;;;;;;17.40;2.97;;;;;;;20.65;52.96;101014.75;5025484;27;98812;-63
2024/04/05 09:31:50;;;;;;;11.55;2.40;;;;;;;20.04;55.58;101024.47;5028489;28;99238;-63
2024/04/05 09:34:18;;;;;;;16.23;2.65;;;;;;;20.40;55.15;101015.66;5026198;27;96988;-62
2024/04/05 09:36:44;;;;;;;15.13;2.20;;;;;;;20.65;54.49;101012.06;5030007;27;96838;-63
2024/04/05 09:39:13;;;;;;;11.18;1.73;;;;;;;20.89;54.10;101004.88;5024675;27;98889;-62
2024/04/05 09:41:40;;;;;;;31.83;4.28;;;;;;;20.89;53.84;100996.81;5031576;27;98665;-63
2024/04/05 09:44:08;;;;;;;8.18;1.52;;;;;;;20.82;54.07;100997.38;5024048;27;97098;-63
2024/04/05 09:46:35;;;;;;;11.32;2.28;;;;;;;20.42;55.74;101000.28;5026488;27;96786;-62
2024/04/05 09:49:03;;;;;;;10.30;2.30;;;;;;;20.55;56.01;101002.94;5029471;28;103057;-62
2024/04/05 09:51:42;;;;;;;9.43;1.80;;;;;;;20.75;55.71;101004.16;5026109;28;101370;-63
2024/04/05 09:54:12;;;;;;;14.70;2.90;;;;;;;20.09;58.39;101014.25;5023586;27;96994;-62
2024/04/05 09:56:38;;;;;;;11.55;2.03;;;;;;;20.01;59.37;101005.06;5029882;27;99618;-63
2024/04/05 09:59:09;;;;;;;14.38;2.15;;;;;;;20.47;58.57;101002.66;5027216;27;100876;-62
2024/04/05 10:01:35;;;;;;;9.13;1.85;;;;;;;20.74;57.71;100999.78;5024758;27;99008;-62
2024/04/05 10:04:03;;;;;;;11.57;2.22;;;;;;;20.46;58.55;101003.63;5023598;28;96734;-62
2024/04/05 10:06:35;;;;;;;10.55;2.03;;;;;;;20.32;59.09;100999.22;5026587;27;96887;-63
2024/04/05 10:09:13;;;;;;;10.27;1.95;;;;;;;20.40;59.82;100991.50;5030562;27;98886;-63
2024/04/05 10:11:40;;;;;;;13.65;4.43;;;;;;;20.72;58.57;100986.47;5027026;27;98839;-64
2024/04/05 10:14:08;;;;;;;8.02;1.90;;;;;;;21.05;59.04;101000.06;5024350;28;96921;-63
2024/04/05 10:16:34;;;;;;;10.40;2.75;;;;;;;21.01;58.38;100998.56;5033606;27;96823;-60
2024/04/05 10:19:09;;;;;;;8.30;1.85;;;;;;;20.87;58.82;101006.78;5030013;27;98160;-62
2024/04/05 10:21:36;;;;;;;11.13;2.03;;;;;;;20.34;61.15;101009.88;5025549;27;97642;-62
2024/04/05 10:24:05;;;;;;;13.15;2.85;;;;;;;20.72;59.98;101009.78;5025813;27;96837;-62
2024/04/05 10:26:31;;;;;;;6.75;1.42;;;;;;;20.75;59.29;100994.28;5031175;27;96881;-62
2024/04/05 10:29:05;;;;;;;13.70;2.17;;;;;;;21.12;58.60;100995.09;5025018;28;98875;-62
2024/04/05 10:31:33;;;;;;;10.18;1.75;;;;;;;21.29;57.12;100993.84;5023563;28;99269;-62
2024/04/05 10:34:03;;;;;;;4.13;1.70;;;;;;;21.40;57.10;100993.88;5024519;27;97149;-62
2024/04/05 10:36:30;;;;;;;11.10;2.08;;;;;;;21.07;58.10;100998.09;5024115;28;96896;-62
2024/04/05 10:38:57;;;;;;;5.90;1.60;;;;;;;21.15;57.89;100994.84;5024887;28;98840;-69
2024/04/05 10:41:22;;;;;;;12.23;2.00;;;;;;;21.23;57.39;100988.94;5028876;27;99038;-70
2024/04/05 10:43:49;;;;;;;8.93;2.03;;;;;;;21.65;56.81;100982.97;5028806;27;96788;-70
2024/04/05 10:46:15;;;;;;;8.18;1.80;;;;;;;22.18;55.05;100976.06;5021614;28;96905;-71
2024/04/05 10:48:43;;;;;;;6.35;1.98;;;;;;;22.08;54.13;100968.81;5021539;27;99128;-71
2024/04/05 10:51:08;;;;;;;8.48;1.45;;;;;;;22.34;53.67;100964.03;5024498;28;98780;-70
2024/04/05 10:53:35;;;;;;;7.93;1.70;;;;;;;22.44;52.96;100955.09;5029750;28;96850;-71
2024/04/05 10:56:03;;;;;;;9.32;2.08;;;;;;;22.86;52.66;100949.84;5022711;27;96921;-71
2024/04/05 10:58:29;;;;;;;8.07;1.70;;;;;;;22.52;52.87;100963.38;5034463;28;98799;-70
2024/04/05 11:00:55;;;;;;;8.90;2.28;;;;;;;22.55;53.57;100957.75;5028860;27;98136;-72
2024/04/05 11:03:21;;;;;;;8.88;1.50;;;;;;;22.56;52.67;100958.63;5032105;27;96689;-70
2024/04/05 11:05:48;;;;;;;7.97;2.10;;;;;;;22.46;53.09;100961.19;5029403;28;96940;-70
2024/04/05 11:08:17;;;;;;;8.45;1.88;;;;;;;22.65;52.02;100953.31;5027272;27;99493;-70
2024/04/05 11:10:43;;;;;;;9.32;2.75;;;;;;;22.64;51.34;100938.13;5033297;27;99350;-69
2024/04/05 11:13:16;;;;;;;38.92;3.72;;;;;;;22.69;51.87;100942.31;5025974;28;96798;-71
2024/04/05 11:15:41;;;;;;;10.48;2.40;;;;;;;22.58;51.26;100941.34;5031623;27;96916;-70
2024/04/05 11:18:08;;;;;;;21.23;3.40;;;;;;;22.70;51.86;100936.78;5032887;27;99177;-70
2024/04/05 11:20:35;;;;;;;10.45;1.85;;;;;;;22.55;51.88;100938.91;5033636;27;97627;-71
2024/04/05 11:23:04;;;;;;;24.35;3.13;;;;;;;22.54;51.61;100936.34;5024789;27;96885;-71
2024/04/05 11:25:31;;;;;;;23.83;4.25;;;;;;;22.39;51.69;100930.38;5026357;27;96892;-70
2024/04/05 11:27:58;;;;;;;20.27;3.47;;;;;;;22.45;52.35;100910.19;5029012;27;99078;-71
2024/04/05 11:30:24;;;;;;;15.85;2.65;;;;;;;22.32;52.62;100907.63;5033530;27;100593;-70
2024/04/05 11:32:51;;;;;;;9.45;1.45;;;;;;;22.42;52.41;100886.19;5028452;27;96788;-70
2024/04/05 11:35:16;;;;;;;17.52;3.53;;;;;;;22.43;52.20;100875.31;5024520;28;97099;-70